sensor_id;sensor_type;location;lat;lon;timestamp;P1;durP1;ratioP1;P2;durP2;ratioP2
78005;SDS011;67211;42.146;24.756;2023-02-11T00:01:14;23.23;;;15.18;;
78005;SDS011;67211;42.146;24.756;2023-02-11T00:03:45;24.42;;;13.98;;
78005;SDS011;67211;42.146;24.756;2023-02-11T00:06:10;23.10;;;13.82;;
78005;SDS011;67211;42.146;24.756;2023-02-11T00:08:36;27.60;;;13.90;;
78005;SDS011;67211;42.146;24.756;2023-02-11T00:11:02;25.95;;;14.90;;
78005;SDS011;67211;42.146;24.756;2023-02-11T00:13:27;24.27;;;15.15;;
78005;SDS011;67211;42.146;24.756;2023-02-11T00:15:54;25.95;;;17.02;;
78005;SDS011;67211;42.146;24.756;2023-02-11T00:18:19;27.58;;;14.68;;
78005;SDS011;67211;42.146;24.756;2023-02-11T00:20:45;28.38;;;15.38;;
78005;SDS011;67211;42.146;24.756;2023-02-11T00:23:10;25.80;;;15.63;;
78005;SDS011;67211;42.146;24.756;2023-02-11T00:25:39;26.13;;;16.58;;
78005;SDS011;67211;42.146;24.756;2023-02-11T00:28:05;28.25;;;15.93;;
78005;SDS011;67211;42.146;24.756;2023-02-11T00:30:31;26.55;;;15.90;;
78005;SDS011;67211;42.146;24.756;2023-02-11T00:32:56;29.48;;;16.23;;
78005;SDS011;67211;42.146;24.756;2023-02-11T00:35:22;27.40;;;16.38;;
78005;SDS011;67211;42.146;24.756;2023-02-11T00:37:47;29.92;;;18.63;;
78005;SDS011;67211;42.146;24.756;2023-02-11T00:40:13;30.73;;;17.35;;
78005;SDS011;67211;42.146;24.756;2023-02-11T00:42:40;36.72;;;17.05;;
78005;SDS011;67211;42.146;24.756;2023-02-11T00:45:06;33.63;;;16.45;;
78005;SDS011;67211;42.146;24.756;2023-02-11T00:47:33;29.35;;;16.15;;
78005;SDS011;67211;42.146;24.756;2023-02-11T00:49:59;26.25;;;14.77;;
78005;SDS011;67211;42.146;24.756;2023-02-11T00:52:24;25.77;;;17.83;;
78005;SDS011;67211;42.146;24.756;2023-02-11T00:54:50;24.13;;;15.15;;
78005;SDS011;67211;42.146;24.756;2023-02-11T00:57:15;27.80;;;14.52;;
78005;SDS011;67211;42.146;24.756;2023-02-11T00:59:41;29.23;;;16.90;;
78005;SDS011;67211;42.146;24.756;2023-02-11T01:02:06;29.13;;;14.25;;
78005;SDS011;67211;42.146;24.756;2023-02-11T01:04:32;28.50;;;15.10;;
78005;SDS011;67211;42.146;24.756;2023-02-11T01:06:57;21.63;;;13.63;;
78005;SDS011;67211;42.146;24.756;2023-02-11T01:09:22;27.92;;;14.27;;
78005;SDS011;67211;42.146;24.756;2023-02-11T01:11:48;26.85;;;15.27;;
78005;SDS011;67211;42.146;24.756;2023-02-11T01:14:13;22.48;;;14.73;;
78005;SDS011;67211;42.146;24.756;2023-02-11T01:16:39;24.08;;;13.73;;
78005;SDS011;67211;42.146;24.756;2023-02-11T01:19:04;28.20;;;14.68;;
78005;SDS011;67211;42.146;24.756;2023-02-11T01:21:30;28.50;;;15.95;;
78005;SDS011;67211;42.146;24.756;2023-02-11T01:23:55;27.35;;;16.63;;
78005;SDS011;67211;42.146;24.756;2023-02-11T01:26:21;28.60;;;16.42;;
78005;SDS011;67211;42.146;24.756;2023-02-11T01:28:46;33.38;;;16.55;;
78005;SDS011;67211;42.146;24.756;2023-02-11T01:31:12;25.30;;;15.95;;
78005;SDS011;67211;42.146;24.756;2023-02-11T01:33:38;24.13;;;15.38;;
78005;SDS011;67211;42.146;24.756;2023-02-11T01:36:04;28.08;;;15.85;;
78005;SDS011;67211;42.146;24.756;2023-02-11T01:38:30;28.48;;;15.32;;
78005;SDS011;67211;42.146;24.756;2023-02-11T01:40:57;24.90;;;16.98;;
78005;SDS011;67211;42.146;24.756;2023-02-11T01:43:24;36.72;;;18.50;;
78005;SDS011;67211;42.146;24.756;2023-02-11T01:46:02;27.98;;;15.30;;
78005;SDS011;67211;42.146;24.756;2023-02-11T01:48:33;24.40;;;15.45;;
78005;SDS011;67211;42.146;24.756;2023-02-11T01:51:04;30.77;;;18.02;;
78005;SDS011;67211;42.146;24.756;2023-02-11T01:53:51;26.80;;;16.08;;
78005;SDS011;67211;42.146;24.756;2023-02-11T01:56:36;22.88;;;14.93;;
78005;SDS011;67211;42.146;24.756;2023-02-11T01:59:26;24.10;;;13.55;;
78005;SDS011;67211;42.146;24.756;2023-02-11T02:01:56;23.13;;;14.18;;
78005;SDS011;67211;42.146;24.756;2023-02-11T02:04:24;22.08;;;14.55;;
78005;SDS011;67211;42.146;24.756;2023-02-11T02:06:58;24.17;;;13.45;;
78005;SDS011;67211;42.146;24.756;2023-02-11T02:09:27;19.05;;;11.88;;
78005;SDS011;67211;42.146;24.756;2023-02-11T02:11:54;20.65;;;13.57;;
78005;SDS011;67211;42.146;24.756;2023-02-11T02:14:19;21.65;;;12.73;;
78005;SDS011;67211;42.146;24.756;2023-02-11T02:16:45;21.35;;;13.82;;
78005;SDS011;67211;42.146;24.756;2023-02-11T02:37:49;19.98;;;12.77;;
78005;SDS011;67211;42.146;24.756;2023-02-11T02:40:28;23.08;;;13.00;;
78005;SDS011;67211;42.146;24.756;2023-02-11T02:42:56;21.20;;;14.38;;
78005;SDS011;67211;42.146;24.756;2023-02-11T02:45:23;26.33;;;14.10;;
78005;SDS011;67211;42.146;24.756;2023-02-11T02:47:48;22.67;;;13.35;;
78005;SDS011;67211;42.146;24.756;2023-02-11T02:50:14;21.80;;;12.18;;
78005;SDS011;67211;42.146;24.756;2023-02-11T02:56:10;24.70;;;12.90;;
78005;SDS011;67211;42.146;24.756;2023-02-11T03:01:36;21.42;;;13.65;;
78005;SDS011;67211;42.146;24.756;2023-02-11T03:06:34;23.02;;;15.18;;
78005;SDS011;67211;42.146;24.756;2023-02-11T03:09:13;22.73;;;14.00;;
78005;SDS011;67211;42.146;24.756;2023-02-11T03:11:43;25.45;;;15.23;;
78005;SDS011;67211;42.146;24.756;2023-02-11T03:14:09;21.60;;;13.52;;
78005;SDS011;67211;42.146;24.756;2023-02-11T03:16:37;20.05;;;13.32;;
78005;SDS011;67211;42.146;24.756;2023-02-11T03:19:10;24.92;;;13.13;;
78005;SDS011;67211;42.146;24.756;2023-02-11T03:21:38;26.95;;;13.95;;
78005;SDS011;67211;42.146;24.756;2023-02-11T03:24:06;25.77;;;15.05;;
78005;SDS011;67211;42.146;24.756;2023-02-11T03:26:53;22.60;;;13.43;;
78005;SDS011;67211;42.146;24.756;2023-02-11T03:36:51;23.80;;;12.77;;
78005;SDS011;67211;42.146;24.756;2023-02-11T03:39:21;21.60;;;13.70;;
78005;SDS011;67211;42.146;24.756;2023-02-11T03:41:49;26.58;;;14.05;;
78005;SDS011;67211;42.146;24.756;2023-02-11T03:44:16;26.50;;;14.40;;
78005;SDS011;67211;42.146;24.756;2023-02-11T03:46:43;24.58;;;15.55;;
78005;SDS011;67211;42.146;24.756;2023-02-11T03:49:13;24.75;;;16.27;;
78005;SDS011;67211;42.146;24.756;2023-02-11T03:51:41;34.63;;;16.90;;
78005;SDS011;67211;42.146;24.756;2023-02-11T03:54:09;37.22;;;19.40;;
78005;SDS011;67211;42.146;24.756;2023-02-11T03:56:38;34.20;;;17.83;;
78005;SDS011;67211;42.146;24.756;2023-02-11T03:59:09;31.30;;;16.52;;
78005;SDS011;67211;42.146;24.756;2023-02-11T04:01:35;28.35;;;17.45;;
78005;SDS011;67211;42.146;24.756;2023-02-11T04:04:00;35.15;;;18.77;;
78005;SDS011;67211;42.146;24.756;2023-02-11T04:06:26;34.28;;;17.98;;
78005;SDS011;67211;42.146;24.756;2023-02-11T04:08:51;32.10;;;16.83;;
78005;SDS011;67211;42.146;24.756;2023-02-11T04:11:17;31.23;;;16.48;;
78005;SDS011;67211;42.146;24.756;2023-02-11T04:13:42;45.30;;;27.65;;
78005;SDS011;67211;42.146;24.756;2023-02-11T04:16:08;59.65;;;33.67;;
78005;SDS011;67211;42.146;24.756;2023-02-11T04:18:33;53.67;;;32.80;;
78005;SDS011;67211;42.146;24.756;2023-02-11T04:20:58;50.38;;;30.15;;
78005;SDS011;67211;42.146;24.756;2023-02-11T04:23:24;90.60;;;49.83;;
78005;SDS011;67211;42.146;24.756;2023-02-11T04:25:49;109.78;;;45.22;;
78005;SDS011;67211;42.146;24.756;2023-02-11T04:28:15;111.70;;;41.33;;
78005;SDS011;67211;42.146;24.756;2023-02-11T04:30:40;79.00;;;32.80;;
78005;SDS011;67211;42.146;24.756;2023-02-11T04:33:06;74.03;;;31.67;;
78005;SDS011;67211;42.146;24.756;2023-02-11T04:35:31;54.92;;;24.63;;
78005;SDS011;67211;42.146;24.756;2023-02-11T04:37:57;62.92;;;28.92;;
78005;SDS011;67211;42.146;24.756;2023-02-11T04:40:22;45.50;;;22.38;;
78005;SDS011;67211;42.146;24.756;2023-02-11T04:42:48;45.55;;;24.15;;
78005;SDS011;67211;42.146;24.756;2023-02-11T04:45:13;41.97;;;21.65;;
78005;SDS011;67211;42.146;24.756;2023-02-11T04:47:38;32.92;;;19.00;;
78005;SDS011;67211;42.146;24.756;2023-02-11T04:50:04;31.92;;;17.60;;
78005;SDS011;67211;42.146;24.756;2023-02-11T04:52:30;31.58;;;17.85;;
78005;SDS011;67211;42.146;24.756;2023-02-11T04:54:55;31.02;;;17.13;;
78005;SDS011;67211;42.146;24.756;2023-02-11T04:57:20;27.58;;;16.40;;
78005;SDS011;67211;42.146;24.756;2023-02-11T04:59:46;29.08;;;16.92;;
78005;SDS011;67211;42.146;24.756;2023-02-11T05:02:12;24.20;;;15.50;;
78005;SDS011;67211;42.146;24.756;2023-02-11T05:04:37;30.55;;;18.23;;
78005;SDS011;67211;42.146;24.756;2023-02-11T05:07:03;28.77;;;15.13;;
78005;SDS011;67211;42.146;24.756;2023-02-11T05:09:28;26.67;;;16.05;;
78005;SDS011;67211;42.146;24.756;2023-02-11T05:11:53;28.83;;;17.80;;
78005;SDS011;67211;42.146;24.756;2023-02-11T05:14:19;24.40;;;14.48;;
78005;SDS011;67211;42.146;24.756;2023-02-11T05:16:44;27.27;;;15.23;;
78005;SDS011;67211;42.146;24.756;2023-02-11T05:19:10;29.45;;;15.57;;
78005;SDS011;67211;42.146;24.756;2023-02-11T05:21:35;22.70;;;14.25;;
78005;SDS011;67211;42.146;24.756;2023-02-11T05:24:01;27.27;;;16.55;;
78005;SDS011;67211;42.146;24.756;2023-02-11T05:26:26;26.83;;;15.45;;
78005;SDS011;67211;42.146;24.756;2023-02-11T05:28:52;26.20;;;16.42;;
78005;SDS011;67211;42.146;24.756;2023-02-11T05:31:17;30.58;;;16.02;;
78005;SDS011;67211;42.146;24.756;2023-02-11T05:33:42;28.63;;;15.93;;
78005;SDS011;67211;42.146;24.756;2023-02-11T05:36:09;26.67;;;15.60;;
78005;SDS011;67211;42.146;24.756;2023-02-11T05:38:36;27.90;;;16.25;;
78005;SDS011;67211;42.146;24.756;2023-02-11T05:41:02;22.70;;;14.70;;
78005;SDS011;67211;42.146;24.756;2023-02-11T05:43:28;32.03;;;16.55;;
78005;SDS011;67211;42.146;24.756;2023-02-11T05:45:53;24.67;;;14.40;;
78005;SDS011;67211;42.146;24.756;2023-02-11T05:48:19;26.88;;;14.02;;
78005;SDS011;67211;42.146;24.756;2023-02-11T05:50:44;23.65;;;14.52;;
78005;SDS011;67211;42.146;24.756;2023-02-11T05:53:10;24.58;;;14.10;;
78005;SDS011;67211;42.146;24.756;2023-02-11T05:55:36;24.63;;;13.65;;
78005;SDS011;67211;42.146;24.756;2023-02-11T05:58:01;23.85;;;15.98;;
78005;SDS011;67211;42.146;24.756;2023-02-11T06:00:26;26.20;;;14.80;;
78005;SDS011;67211;42.146;24.756;2023-02-11T06:02:52;26.67;;;15.27;;
78005;SDS011;67211;42.146;24.756;2023-02-11T06:05:18;31.17;;;15.38;;
78005;SDS011;67211;42.146;24.756;2023-02-11T06:07:44;27.65;;;14.90;;
78005;SDS011;67211;42.146;24.756;2023-02-11T06:10:09;26.83;;;16.33;;
78005;SDS011;67211;42.146;24.756;2023-02-11T06:12:35;26.88;;;15.88;;
78005;SDS011;67211;42.146;24.756;2023-02-11T06:15:01;27.60;;;16.70;;
78005;SDS011;67211;42.146;24.756;2023-02-11T06:17:26;29.58;;;18.23;;
78005;SDS011;67211;42.146;24.756;2023-02-11T06:19:56;27.63;;;15.80;;
78005;SDS011;67211;42.146;24.756;2023-02-11T06:22:22;26.50;;;18.02;;
78005;SDS011;67211;42.146;24.756;2023-02-11T06:24:47;27.95;;;17.48;;
78005;SDS011;67211;42.146;24.756;2023-02-11T06:27:13;29.42;;;17.45;;
78005;SDS011;67211;42.146;24.756;2023-02-11T06:29:38;28.00;;;15.05;;
78005;SDS011;67211;42.146;24.756;2023-02-11T06:32:04;25.02;;;14.77;;
78005;SDS011;67211;42.146;24.756;2023-02-11T06:34:29;27.50;;;14.48;;
78005;SDS011;67211;42.146;24.756;2023-02-11T06:36:55;29.30;;;17.80;;
78005;SDS011;67211;42.146;24.756;2023-02-11T06:39:20;25.35;;;15.05;;
78005;SDS011;67211;42.146;24.756;2023-02-11T06:41:45;29.77;;;16.83;;
78005;SDS011;67211;42.146;24.756;2023-02-11T06:44:11;30.02;;;15.55;;
78005;SDS011;67211;42.146;24.756;2023-02-11T06:46:36;25.73;;;15.02;;
78005;SDS011;67211;42.146;24.756;2023-02-11T06:49:02;24.02;;;13.75;;
78005;SDS011;67211;42.146;24.756;2023-02-11T06:51:27;32.42;;;16.38;;
78005;SDS011;67211;42.146;24.756;2023-02-11T06:53:53;28.10;;;16.67;;
78005;SDS011;67211;42.146;24.756;2023-02-11T06:56:20;30.13;;;15.10;;
78005;SDS011;67211;42.146;24.756;2023-02-11T06:58:46;23.05;;;14.77;;
78005;SDS011;67211;42.146;24.756;2023-02-11T07:01:14;24.58;;;17.58;;
78005;SDS011;67211;42.146;24.756;2023-02-11T07:03:41;20.17;;;13.48;;
78005;SDS011;67211;42.146;24.756;2023-02-11T07:06:07;22.33;;;13.15;;
78005;SDS011;67211;42.146;24.756;2023-02-11T07:08:36;18.73;;;11.73;;
78005;SDS011;67211;42.146;24.756;2023-02-11T07:11:13;20.60;;;12.93;;
78005;SDS011;67211;42.146;24.756;2023-02-11T07:13:40;20.73;;;12.73;;
78005;SDS011;67211;42.146;24.756;2023-02-11T07:16:07;17.20;;;13.05;;
78005;SDS011;67211;42.146;24.756;2023-02-11T07:18:34;19.30;;;13.95;;
78005;SDS011;67211;42.146;24.756;2023-02-11T07:21:03;21.08;;;15.95;;
78005;SDS011;67211;42.146;24.756;2023-02-11T07:23:30;19.02;;;13.20;;
78005;SDS011;67211;42.146;24.756;2023-02-11T07:25:55;34.17;;;22.52;;
78005;SDS011;67211;42.146;24.756;2023-02-11T07:28:21;29.63;;;17.98;;
78005;SDS011;67211;42.146;24.756;2023-02-11T07:30:46;21.85;;;14.85;;
78005;SDS011;67211;42.146;24.756;2023-02-11T07:33:12;27.23;;;13.95;;
78005;SDS011;67211;42.146;24.756;2023-02-11T07:35:37;22.40;;;12.57;;
78005;SDS011;67211;42.146;24.756;2023-02-11T07:38:03;23.17;;;11.85;;
78005;SDS011;67211;42.146;24.756;2023-02-11T07:40:29;18.15;;;10.55;;
78005;SDS011;67211;42.146;24.756;2023-02-11T07:42:55;18.52;;;11.18;;
78005;SDS011;67211;42.146;24.756;2023-02-11T07:45:21;20.38;;;14.93;;
78005;SDS011;67211;42.146;24.756;2023-02-11T07:47:46;50.42;;;23.58;;
78005;SDS011;67211;42.146;24.756;2023-02-11T07:50:12;22.67;;;14.45;;
78005;SDS011;67211;42.146;24.756;2023-02-11T07:52:37;20.13;;;11.40;;
78005;SDS011;67211;42.146;24.756;2023-02-11T07:55:03;26.33;;;12.32;;
78005;SDS011;67211;42.146;24.756;2023-02-11T07:57:28;19.73;;;14.35;;
78005;SDS011;67211;42.146;24.756;2023-02-11T07:59:54;20.58;;;12.88;;
78005;SDS011;67211;42.146;24.756;2023-02-11T08:02:19;21.48;;;12.18;;
78005;SDS011;67211;42.146;24.756;2023-02-11T08:04:45;21.90;;;13.32;;
78005;SDS011;67211;42.146;24.756;2023-02-11T08:07:13;20.75;;;12.60;;
78005;SDS011;67211;42.146;24.756;2023-02-11T08:09:40;24.65;;;15.18;;
78005;SDS011;67211;42.146;24.756;2023-02-11T08:12:05;18.38;;;12.15;;
78005;SDS011;67211;42.146;24.756;2023-02-11T08:14:31;20.83;;;12.88;;
78005;SDS011;67211;42.146;24.756;2023-02-11T08:16:56;19.00;;;12.73;;
78005;SDS011;67211;42.146;24.756;2023-02-11T08:19:22;17.63;;;12.82;;
78005;SDS011;67211;42.146;24.756;2023-02-11T08:21:48;17.65;;;12.57;;
78005;SDS011;67211;42.146;24.756;2023-02-11T08:24:14;21.33;;;13.05;;
78005;SDS011;67211;42.146;24.756;2023-02-11T08:26:40;17.77;;;11.65;;
78005;SDS011;67211;42.146;24.756;2023-02-11T08:29:07;20.98;;;14.18;;
78005;SDS011;67211;42.146;24.756;2023-02-11T08:31:35;18.55;;;12.80;;
78005;SDS011;67211;42.146;24.756;2023-02-11T08:34:03;26.00;;;15.90;;
78005;SDS011;67211;42.146;24.756;2023-02-11T08:36:30;23.92;;;13.93;;
78005;SDS011;67211;42.146;24.756;2023-02-11T08:39:00;23.55;;;14.52;;
78005;SDS011;67211;42.146;24.756;2023-02-11T08:41:29;23.35;;;14.25;;
78005;SDS011;67211;42.146;24.756;2023-02-11T08:43:54;23.25;;;14.15;;
78005;SDS011;67211;42.146;24.756;2023-02-11T08:46:20;20.88;;;13.38;;
78005;SDS011;67211;42.146;24.756;2023-02-11T08:48:46;20.75;;;14.68;;
78005;SDS011;67211;42.146;24.756;2023-02-11T08:51:15;23.95;;;15.15;;
78005;SDS011;67211;42.146;24.756;2023-02-11T08:53:43;21.45;;;13.93;;
78005;SDS011;67211;42.146;24.756;2023-02-11T08:56:09;20.50;;;12.70;;
78005;SDS011;67211;42.146;24.756;2023-02-11T08:58:36;22.58;;;13.07;;
78005;SDS011;67211;42.146;24.756;2023-02-11T09:01:07;22.10;;;13.65;;
78005;SDS011;67211;42.146;24.756;2023-02-11T09:03:36;19.95;;;12.57;;
78005;SDS011;67211;42.146;24.756;2023-02-11T09:06:03;19.13;;;13.95;;
78005;SDS011;67211;42.146;24.756;2023-02-11T09:08:30;22.85;;;13.30;;
78005;SDS011;67211;42.146;24.756;2023-02-11T09:10:56;18.17;;;12.65;;
78005;SDS011;67211;42.146;24.756;2023-02-11T09:13:21;20.25;;;13.70;;
78005;SDS011;67211;42.146;24.756;2023-02-11T09:15:47;22.38;;;14.48;;
78005;SDS011;67211;42.146;24.756;2023-02-11T09:18:12;16.20;;;10.48;;
78005;SDS011;67211;42.146;24.756;2023-02-11T09:20:38;22.42;;;12.38;;
78005;SDS011;67211;42.146;24.756;2023-02-11T09:23:04;19.95;;;16.65;;
78005;SDS011;67211;42.146;24.756;2023-02-11T09:25:29;22.55;;;15.50;;
78005;SDS011;67211;42.146;24.756;2023-02-11T09:27:54;19.08;;;12.07;;
78005;SDS011;67211;42.146;24.756;2023-02-11T09:30:20;18.65;;;12.23;;
78005;SDS011;67211;42.146;24.756;2023-02-11T09:32:45;20.10;;;13.02;;
78005;SDS011;67211;42.146;24.756;2023-02-11T09:35:11;19.00;;;13.43;;
78005;SDS011;67211;42.146;24.756;2023-02-11T09:37:36;25.02;;;16.77;;
78005;SDS011;67211;42.146;24.756;2023-02-11T09:40:02;27.27;;;17.20;;
78005;SDS011;67211;42.146;24.756;2023-02-11T09:42:34;22.67;;;14.60;;
78005;SDS011;67211;42.146;24.756;2023-02-11T09:45:03;18.08;;;13.32;;
78005;SDS011;67211;42.146;24.756;2023-02-11T09:47:35;24.52;;;17.15;;
78005;SDS011;67211;42.146;24.756;2023-02-11T09:50:11;21.83;;;13.88;;
78005;SDS011;67211;42.146;24.756;2023-02-11T09:52:40;18.92;;;13.57;;
78005;SDS011;67211;42.146;24.756;2023-02-11T09:55:21;24.02;;;15.05;;
78005;SDS011;67211;42.146;24.756;2023-02-11T09:57:49;21.40;;;13.63;;
78005;SDS011;67211;42.146;24.756;2023-02-11T10:00:20;21.27;;;13.38;;
78005;SDS011;67211;42.146;24.756;2023-02-11T10:08:04;18.88;;;13.18;;
78005;SDS011;67211;42.146;24.756;2023-02-11T10:10:49;26.30;;;14.77;;
78005;SDS011;67211;42.146;24.756;2023-02-11T10:15:56;20.60;;;14.73;;
78005;SDS011;67211;42.146;24.756;2023-02-11T10:18:31;17.98;;;11.70;;
78005;SDS011;67211;42.146;24.756;2023-02-11T10:21:11;18.45;;;12.55;;
78005;SDS011;67211;42.146;24.756;2023-02-11T10:23:44;18.83;;;14.05;;
78005;SDS011;67211;42.146;24.756;2023-02-11T10:26:16;19.13;;;13.75;;
78005;SDS011;67211;42.146;24.756;2023-02-11T10:28:43;18.95;;;13.70;;
78005;SDS011;67211;42.146;24.756;2023-02-11T10:33:57;18.23;;;12.40;;
78005;SDS011;67211;42.146;24.756;2023-02-11T10:36:29;17.67;;;12.50;;
78005;SDS011;67211;42.146;24.756;2023-02-11T10:39:21;18.10;;;12.07;;
78005;SDS011;67211;42.146;24.756;2023-02-11T10:41:48;15.98;;;12.77;;
78005;SDS011;67211;42.146;24.756;2023-02-11T10:44:29;16.77;;;12.40;;
78005;SDS011;67211;42.146;24.756;2023-02-11T10:46:56;19.80;;;14.93;;
78005;SDS011;67211;42.146;24.756;2023-02-11T10:52:14;16.05;;;12.40;;
78005;SDS011;67211;42.146;24.756;2023-02-11T10:57:49;16.70;;;12.48;;
78005;SDS011;67211;42.146;24.756;2023-02-11T11:03:25;15.85;;;11.05;;
78005;SDS011;67211;42.146;24.756;2023-02-11T11:05:50;17.88;;;10.82;;
78005;SDS011;67211;42.146;24.756;2023-02-11T11:08:20;14.38;;;10.77;;
78005;SDS011;67211;42.146;24.756;2023-02-11T11:11:00;16.63;;;11.48;;
78005;SDS011;67211;42.146;24.756;2023-02-11T11:13:35;14.98;;;11.07;;
78005;SDS011;67211;42.146;24.756;2023-02-11T11:18:36;16.05;;;12.32;;
78005;SDS011;67211;42.146;24.756;2023-02-11T11:23:52;17.40;;;13.02;;
78005;SDS011;67211;42.146;24.756;2023-02-11T11:26:20;15.82;;;11.23;;
78005;SDS011;67211;42.146;24.756;2023-02-11T11:28:53;13.90;;;9.38;;
78005;SDS011;67211;42.146;24.756;2023-02-11T11:31:31;15.85;;;11.75;;
78005;SDS011;67211;42.146;24.756;2023-02-11T11:34:00;15.68;;;10.27;;
78005;SDS011;67211;42.146;24.756;2023-02-11T11:36:32;14.30;;;10.15;;
78005;SDS011;67211;42.146;24.756;2023-02-11T11:39:00;14.55;;;9.75;;
78005;SDS011;67211;42.146;24.756;2023-02-11T11:41:32;16.10;;;9.75;;
78005;SDS011;67211;42.146;24.756;2023-02-11T11:46:27;16.98;;;11.18;;
78005;SDS011;67211;42.146;24.756;2023-02-11T11:49:03;15.63;;;12.32;;
78005;SDS011;67211;42.146;24.756;2023-02-11T11:52:38;15.05;;;11.48;;
78005;SDS011;67211;42.146;24.756;2023-02-11T11:54:48;11.40;;;8.65;;
78005;SDS011;67211;42.146;24.756;2023-02-11T11:57:17;15.82;;;10.38;;
78005;SDS011;67211;42.146;24.756;2023-02-11T11:59:44;12.20;;;8.35;;
78005;SDS011;67211;42.146;24.756;2023-02-11T12:13:29;13.95;;;9.30;;
78005;SDS011;67211;42.146;24.756;2023-02-11T12:21:55;12.45;;;8.60;;
78005;SDS011;67211;42.146;24.756;2023-02-11T12:30:15;13.20;;;10.13;;
78005;SDS011;67211;42.146;24.756;2023-02-11T12:44:06;12.63;;;9.32;;
78005;SDS011;67211;42.146;24.756;2023-02-11T12:46:37;17.60;;;9.80;;
78005;SDS011;67211;42.146;24.756;2023-02-11T12:49:16;15.32;;;10.77;;
78005;SDS011;67211;42.146;24.756;2023-02-11T12:54:35;13.50;;;8.85;;
78005;SDS011;67211;42.146;24.756;2023-02-11T12:57:14;14.43;;;9.57;;
78005;SDS011;67211;42.146;24.756;2023-02-11T13:05:17;13.63;;;9.18;;
78005;SDS011;67211;42.146;24.756;2023-02-11T13:07:44;13.43;;;10.30;;
78005;SDS011;67211;42.146;24.756;2023-02-11T13:12:44;12.55;;;7.40;;
78005;SDS011;67211;42.146;24.756;2023-02-11T13:15:29;11.52;;;7.82;;
78005;SDS011;67211;42.146;24.756;2023-02-11T13:17:59;13.90;;;9.65;;
78005;SDS011;67211;42.146;24.756;2023-02-11T13:23:08;10.60;;;8.02;;
78005;SDS011;67211;42.146;24.756;2023-02-11T13:25:52;11.07;;;8.48;;
78005;SDS011;67211;42.146;24.756;2023-02-11T13:31:00;19.58;;;12.32;;
78005;SDS011;67211;42.146;24.756;2023-02-11T13:33:31;15.60;;;9.75;;
78005;SDS011;67211;42.146;24.756;2023-02-11T13:38:27;15.25;;;10.05;;
78005;SDS011;67211;42.146;24.756;2023-02-11T13:41:03;14.32;;;10.52;;
78005;SDS011;67211;42.146;24.756;2023-02-11T13:46:55;13.68;;;8.82;;
78005;SDS011;67211;42.146;24.756;2023-02-11T13:49:28;14.02;;;9.70;;
78005;SDS011;67211;42.146;24.756;2023-02-11T13:51:56;30.33;;;19.88;;
78005;SDS011;67211;42.146;24.756;2023-02-11T13:57:21;13.68;;;10.05;;
78005;SDS011;67211;42.146;24.756;2023-02-11T14:09:35;17.17;;;9.10;;
78005;SDS011;67211;42.146;24.756;2023-02-11T14:12:18;14.25;;;9.60;;
78005;SDS011;67211;42.146;24.756;2023-02-11T14:14:59;14.07;;;9.10;;
78005;SDS011;67211;42.146;24.756;2023-02-11T14:17:29;13.70;;;8.93;;
78005;SDS011;67211;42.146;24.756;2023-02-11T14:19:56;18.20;;;9.20;;
78005;SDS011;67211;42.146;24.756;2023-02-11T14:22:24;18.27;;;12.15;;
78005;SDS011;67211;42.146;24.756;2023-02-11T14:33:37;17.38;;;10.88;;
78005;SDS011;67211;42.146;24.756;2023-02-11T14:41:58;12.73;;;8.48;;
78005;SDS011;67211;42.146;24.756;2023-02-11T14:44:26;16.35;;;9.98;;
78005;SDS011;67211;42.146;24.756;2023-02-11T14:46:53;14.50;;;9.45;;
78005;SDS011;67211;42.146;24.756;2023-02-11T14:51:56;17.98;;;9.80;;
78005;SDS011;67211;42.146;24.756;2023-02-11T14:54:25;16.13;;;10.45;;
78005;SDS011;67211;42.146;24.756;2023-02-11T14:57:08;14.55;;;10.13;;
78005;SDS011;67211;42.146;24.756;2023-02-11T15:02:20;15.57;;;9.07;;
78005;SDS011;67211;42.146;24.756;2023-02-11T15:04:47;17.88;;;9.38;;
78005;SDS011;67211;42.146;24.756;2023-02-11T15:07:12;15.07;;;9.88;;
78005;SDS011;67211;42.146;24.756;2023-02-11T15:09:39;19.23;;;12.40;;
78005;SDS011;67211;42.146;24.756;2023-02-11T15:12:23;20.20;;;13.52;;
78005;SDS011;67211;42.146;24.756;2023-02-11T15:14:51;28.88;;;15.63;;
78005;SDS011;67211;42.146;24.756;2023-02-11T15:17:22;29.45;;;15.30;;
78005;SDS011;67211;42.146;24.756;2023-02-11T15:19:53;27.08;;;15.07;;
78005;SDS011;67211;42.146;24.756;2023-02-11T15:22:22;25.33;;;15.55;;
78005;SDS011;67211;42.146;24.756;2023-02-11T15:27:37;16.55;;;11.45;;
78005;SDS011;67211;42.146;24.756;2023-02-11T15:30:16;19.08;;;12.18;;
78005;SDS011;67211;42.146;24.756;2023-02-11T15:32:48;23.83;;;14.23;;
78005;SDS011;67211;42.146;24.756;2023-02-11T15:35:14;19.70;;;12.52;;
78005;SDS011;67211;42.146;24.756;2023-02-11T15:37:42;24.85;;;14.65;;
78005;SDS011;67211;42.146;24.756;2023-02-11T15:40:14;30.42;;;17.05;;
78005;SDS011;67211;42.146;24.756;2023-02-11T15:42:56;40.72;;;21.73;;
78005;SDS011;67211;42.146;24.756;2023-02-11T15:45:24;40.63;;;21.60;;
78005;SDS011;67211;42.146;24.756;2023-02-11T15:47:56;37.67;;;21.52;;
78005;SDS011;67211;42.146;24.756;2023-02-11T15:50:30;34.35;;;18.75;;
78005;SDS011;67211;42.146;24.756;2023-02-11T15:52:58;32.38;;;17.60;;
78005;SDS011;67211;42.146;24.756;2023-02-11T15:55:25;36.00;;;20.33;;
78005;SDS011;67211;42.146;24.756;2023-02-11T15:57:52;34.08;;;21.05;;
78005;SDS011;67211;42.146;24.756;2023-02-11T16:00:20;33.63;;;17.40;;
78005;SDS011;67211;42.146;24.756;2023-02-11T16:02:48;46.92;;;24.70;;
78005;SDS011;67211;42.146;24.756;2023-02-11T16:07:52;64.57;;;34.70;;
78005;SDS011;67211;42.146;24.756;2023-02-11T16:12:53;60.47;;;34.85;;
78005;SDS011;67211;42.146;24.756;2023-02-11T16:15:27;50.67;;;29.65;;
78005;SDS011;67211;42.146;24.756;2023-02-11T16:18:13;51.92;;;28.90;;
78005;SDS011;67211;42.146;24.756;2023-02-11T16:20:47;49.45;;;27.80;;
78005;SDS011;67211;42.146;24.756;2023-02-11T16:23:16;59.20;;;32.72;;
78005;SDS011;67211;42.146;24.756;2023-02-11T16:25:47;71.03;;;32.42;;
78005;SDS011;67211;42.146;24.756;2023-02-11T16:28:20;64.35;;;28.67;;
78005;SDS011;67211;42.146;24.756;2023-02-11T16:30:49;61.60;;;32.95;;
78005;SDS011;67211;42.146;24.756;2023-02-11T16:33:17;81.85;;;39.35;;
78005;SDS011;67211;42.146;24.756;2023-02-11T16:35:42;83.07;;;42.28;;
78005;SDS011;67211;42.146;24.756;2023-02-11T16:38:11;69.50;;;35.30;;
78005;SDS011;67211;42.146;24.756;2023-02-11T16:40:37;68.63;;;37.65;;
78005;SDS011;67211;42.146;24.756;2023-02-11T16:43:03;118.95;;;58.15;;
78005;SDS011;67211;42.146;24.756;2023-02-11T16:45:28;132.70;;;65.75;;
78005;SDS011;67211;42.146;24.756;2023-02-11T16:47:53;201.63;;;91.05;;
78005;SDS011;67211;42.146;24.756;2023-02-11T16:50:20;92.75;;;44.88;;
78005;SDS011;67211;42.146;24.756;2023-02-11T16:52:46;141.85;;;67.75;;
78005;SDS011;67211;42.146;24.756;2023-02-11T16:55:12;139.77;;;66.55;;